Etusivu
METAR-TAF:

METAR-TAF

Lentoasemat :

Haugesund, Norja

Leveyspiiri: 59-21N, Pituuspiiri: 005-13E, korkeus merenpinnasta: 2 m

Tämänhetkinen sää

Tämä raportti tehtiin 16 minuuttia sitten, kello 09.50 UTC
Tuuli 5 kn idästä
Lämpötila 5°C
Kosteus 87%
Ilmanpaine 1011 hPa
Näkyvyys 10 km tai enemmän
Muutamia pilviä 2400 ft:n korkeudessa

METAR: ENHD 170950Z 10005KT 9999 FEW024 05/03 Q1011

Aika: 11:06 (10:06 UTC)

Sääennuste

Tämä raportti tehtiin 2 tuntia ja 6 minuuttia sitten, kello 08.00 UTC
Ennuste voimassa 17. päivästä klo 09 UTC - 17. päivään klo 18 UTC
Tuuli 7 kn idästä/kaakosta
Näkyvyys 10 km tai enemmän
Hajanaisia pilviä 2500 ft:n korkeudessa

TAF: ENHD 170800Z 1709/1718 12007KT 9999 SCT025

Säähavainnot ja -ennusteet yli 4000 lentoasemalta (METAR- ja TAF-raportit).

Käytössä olevat sääasemat on merkitty karttaan keltaisilla ja punaisilla pisteillä.

Aseta hiiri pisteen päälle nähdäksesi sääaseman nimen.

Klikkaa sitten nähdäksesi säähavainnot ja -ennusteet.

Kartan vaihtaminen: klikkaa mustalla rastilla varustettuja vihreitä pisteitä, niin voit zoomata sisään; viivalla varustettua vihreää pistettä, niin voit zoomata ulos tai vihreitä nuolia, niin pääset viereisille kartoille.


METAR-TAF: